sensor_id;sensor_type;location;lat;lon;timestamp;pressure;altitude;pressure_sealevel;temperature;humidity
13050;BME280;6591;51.446;5.404;2022-10-03T00:05:09;102279.44;;;14.94;56.89
13050;BME280;6591;51.446;5.404;2022-10-03T00:07:58;102279.78;;;14.86;56.49
13050;BME280;6591;51.446;5.404;2022-10-03T00:16:38;102279.56;;;14.69;56.39
13050;BME280;6591;51.446;5.404;2022-10-03T00:19:41;102282.59;;;14.60;56.59
13050;BME280;6591;51.446;5.404;2022-10-03T00:22:31;102276.66;;;14.52;56.43
13050;BME280;6591;51.446;5.404;2022-10-03T00:25:31;102283.25;;;14.43;56.24
13050;BME280;6591;51.446;5.404;2022-10-03T00:31:15;102289.88;;;14.31;56.41
13050;BME280;6591;51.446;5.404;2022-10-03T00:49:46;102311.00;;;14.14;57.19
13050;BME280;6591;51.446;5.404;2022-10-03T00:59:23;102313.84;;;14.10;57.62
13050;BME280;6591;51.446;5.404;2022-10-03T01:03:03;102317.38;;;14.10;57.50
13050;BME280;6591;51.446;5.404;2022-10-03T01:05:42;102321.84;;;14.10;57.89
13050;BME280;6591;51.446;5.404;2022-10-03T01:14:57;102325.56;;;14.06;57.50
13050;BME280;6591;51.446;5.404;2022-10-03T01:17:56;102335.34;;;14.07;57.47
13050;BME280;6591;51.446;5.404;2022-10-03T01:24:11;102338.22;;;14.00;57.78
13050;BME280;6591;51.446;5.404;2022-10-03T01:27:00;102340.00;;;14.00;57.08
13050;BME280;6591;51.446;5.404;2022-10-03T01:30:04;102346.41;;;13.96;57.21
13050;BME280;6591;51.446;5.404;2022-10-03T01:33:09;102340.22;;;13.94;57.37
13050;BME280;6591;51.446;5.404;2022-10-03T01:36:15;102339.47;;;13.90;57.59
13050;BME280;6591;51.446;5.404;2022-10-03T01:39:38;102343.78;;;13.94;58.05
13050;BME280;6591;51.446;5.404;2022-10-03T01:42:18;102349.88;;;13.98;57.89
13050;BME280;6591;51.446;5.404;2022-10-03T01:45:11;102341.81;;;13.99;58.34
13050;BME280;6591;51.446;5.404;2022-10-03T01:48:07;102350.56;;;14.03;57.56
13050;BME280;6591;51.446;5.404;2022-10-03T01:51:00;102349.66;;;14.04;57.88
13050;BME280;6591;51.446;5.404;2022-10-03T01:56:56;102345.19;;;14.05;57.50
13050;BME280;6591;51.446;5.404;2022-10-03T01:59:57;102339.97;;;14.02;57.47
13050;BME280;6591;51.446;5.404;2022-10-03T02:11:09;102352.66;;;13.95;57.12
13050;BME280;6591;51.446;5.404;2022-10-03T02:16:38;102354.75;;;13.87;57.10
13050;BME280;6591;51.446;5.404;2022-10-03T02:19:25;102350.47;;;13.81;57.54
13050;BME280;6591;51.446;5.404;2022-10-03T02:21:59;102358.41;;;13.83;57.87
13050;BME280;6591;51.446;5.404;2022-10-03T02:30:19;102344.47;;;13.75;57.38
13050;BME280;6591;51.446;5.404;2022-10-03T02:33:39;102344.69;;;13.69;57.46
13050;BME280;6591;51.446;5.404;2022-10-03T02:36:51;102344.72;;;13.67;57.39
13050;BME280;6591;51.446;5.404;2022-10-03T02:46:03;102348.22;;;13.69;58.16
13050;BME280;6591;51.446;5.404;2022-10-03T02:51:42;102342.72;;;13.74;57.90
13050;BME280;6591;51.446;5.404;2022-10-03T03:01:24;102352.81;;;13.66;56.98
13050;BME280;6591;51.446;5.404;2022-10-03T03:10:51;102346.13;;;13.52;57.57
13050;BME280;6591;51.446;5.404;2022-10-03T03:16:48;102350.69;;;13.49;57.67
13050;BME280;6591;51.446;5.404;2022-10-03T03:37:05;102362.63;;;13.37;57.30
13050;BME280;6591;51.446;5.404;2022-10-03T03:51:22;102362.00;;;13.29;57.85
13050;BME280;6591;51.446;5.404;2022-10-03T04:00:20;102362.94;;;13.28;57.83
13050;BME280;6591;51.446;5.404;2022-10-03T04:06:26;102371.81;;;13.29;58.17
13050;BME280;6591;51.446;5.404;2022-10-03T04:09:38;102376.19;;;13.30;57.91
13050;BME280;6591;51.446;5.404;2022-10-03T04:12:24;102374.31;;;13.33;57.68
13050;BME280;6591;51.446;5.404;2022-10-03T04:15:33;102372.63;;;13.31;58.13
13050;BME280;6591;51.446;5.404;2022-10-03T04:18:17;102377.81;;;13.35;57.97
13050;BME280;6591;51.446;5.404;2022-10-03T04:21:31;102386.78;;;13.33;58.03
13050;BME280;6591;51.446;5.404;2022-10-03T04:24:41;102380.63;;;13.31;57.34
13050;BME280;6591;51.446;5.404;2022-10-03T04:27:36;102380.56;;;13.32;58.10
13050;BME280;6591;51.446;5.404;2022-10-03T04:30:20;102377.91;;;13.32;57.63
13050;BME280;6591;51.446;5.404;2022-10-03T04:33:09;102383.22;;;13.34;57.83
13050;BME280;6591;51.446;5.404;2022-10-03T04:36:26;102378.94;;;13.28;57.61
13050;BME280;6591;51.446;5.404;2022-10-03T04:39:17;102379.94;;;13.24;57.58
13050;BME280;6591;51.446;5.404;2022-10-03T04:47:30;102381.03;;;13.19;58.01
13050;BME280;6591;51.446;5.404;2022-10-03T04:55:39;102379.13;;;13.22;58.32
13050;BME280;6591;51.446;5.404;2022-10-03T05:01:43;102378.13;;;13.25;59.22
13050;BME280;6591;51.446;5.404;2022-10-03T05:04:47;102376.19;;;13.30;59.02
13050;BME280;6591;51.446;5.404;2022-10-03T05:07:56;102385.81;;;13.35;58.98
13050;BME280;6591;51.446;5.404;2022-10-03T05:10:54;102391.06;;;13.38;58.36
13050;BME280;6591;51.446;5.404;2022-10-03T05:13:55;102383.84;;;13.40;58.61
13050;BME280;6591;51.446;5.404;2022-10-03T05:16:48;102389.13;;;13.43;58.26
13050;BME280;6591;51.446;5.404;2022-10-03T05:19:52;102389.13;;;13.43;58.60
13050;BME280;6591;51.446;5.404;2022-10-03T05:22:43;102395.25;;;13.45;58.33
13050;BME280;6591;51.446;5.404;2022-10-03T05:28:14;102394.19;;;13.51;58.92
13050;BME280;6591;51.446;5.404;2022-10-03T05:48:51;102409.03;;;13.60;58.11
13050;BME280;6591;51.446;5.404;2022-10-03T05:55:11;102412.66;;;13.57;58.16
13050;BME280;6591;51.446;5.404;2022-10-03T06:09:34;102429.53;;;13.59;58.72
13050;BME280;6591;51.446;5.404;2022-10-03T06:12:36;102428.38;;;13.66;58.63
13050;BME280;6591;51.446;5.404;2022-10-03T06:18:42;102428.19;;;13.72;59.27
13050;BME280;6591;51.446;5.404;2022-10-03T06:21:22;102444.00;;;13.78;59.10
13050;BME280;6591;51.446;5.404;2022-10-03T06:31:12;102430.22;;;13.92;59.22
13050;BME280;6591;51.446;5.404;2022-10-03T06:43:27;102440.06;;;14.16;59.86
13050;BME280;6591;51.446;5.404;2022-10-03T07:08:40;102451.88;;;14.85;60.34
13050;BME280;6591;51.446;5.404;2022-10-03T07:32:48;102465.16;;;16.42;61.04
13050;BME280;6591;51.446;5.404;2022-10-03T07:39:13;102465.75;;;17.08;60.88
13050;BME280;6591;51.446;5.404;2022-10-03T07:42:10;102463.38;;;17.39;60.37
13050;BME280;6591;51.446;5.404;2022-10-03T07:45:33;102466.28;;;17.72;60.08
13050;BME280;6591;51.446;5.404;2022-10-03T07:51:33;102468.81;;;18.28;59.75
13050;BME280;6591;51.446;5.404;2022-10-03T07:54:33;102477.34;;;18.53;59.45
13050;BME280;6591;51.446;5.404;2022-10-03T08:13:09;102480.50;;;19.76;58.29
13050;BME280;6591;51.446;5.404;2022-10-03T08:19:18;102480.47;;;20.07;58.05
13050;BME280;6591;51.446;5.404;2022-10-03T08:22:30;102480.34;;;20.24;58.50
13050;BME280;6591;51.446;5.404;2022-10-03T08:28:53;102477.19;;;20.62;58.01
13050;BME280;6591;51.446;5.404;2022-10-03T08:50:46;102486.88;;;22.19;56.36
13050;BME280;6591;51.446;5.404;2022-10-03T08:59:45;102489.59;;;22.84;56.21
13050;BME280;6591;51.446;5.404;2022-10-03T09:02:35;102487.19;;;23.04;55.36
13050;BME280;6591;51.446;5.404;2022-10-03T09:08:48;102490.19;;;23.38;54.90
13050;BME280;6591;51.446;5.404;2022-10-03T09:11:34;102483.59;;;23.54;54.46
13050;BME280;6591;51.446;5.404;2022-10-03T09:15:12;102487.88;;;23.70;55.59
13050;BME280;6591;51.446;5.404;2022-10-03T09:37:30;102479.13;;;25.06;57.83
13050;BME280;6591;51.446;5.404;2022-10-03T09:56:20;102459.94;;;26.38;54.73
13050;BME280;6591;51.446;5.404;2022-10-03T10:15:19;102449.34;;;26.24;54.52
13050;BME280;6591;51.446;5.404;2022-10-03T10:36:44;102449.16;;;25.61;52.80
13050;BME280;6591;51.446;5.404;2022-10-03T10:46:27;102448.19;;;25.40;53.70
13050;BME280;6591;51.446;5.404;2022-10-03T10:52:45;102454.72;;;25.71;53.88
13050;BME280;6591;51.446;5.404;2022-10-03T11:02:54;102450.41;;;26.00;53.53
13050;BME280;6591;51.446;5.404;2022-10-03T11:09:34;102451.75;;;26.38;53.67
13050;BME280;6591;51.446;5.404;2022-10-03T11:16:09;102455.44;;;26.78;53.26
13050;BME280;6591;51.446;5.404;2022-10-03T11:19:41;102443.56;;;27.10;53.35
13050;BME280;6591;51.446;5.404;2022-10-03T11:38:42;102425.28;;;29.49;51.20
13050;BME280;6591;51.446;5.404;2022-10-03T11:41:39;102426.31;;;29.66;50.51
13050;BME280;6591;51.446;5.404;2022-10-03T11:44:18;102417.69;;;29.78;49.52
13050;BME280;6591;51.446;5.404;2022-10-03T11:53:26;102426.31;;;29.83;47.98
13050;BME280;6591;51.446;5.404;2022-10-03T11:56:24;102418.75;;;29.77;48.14
13050;BME280;6591;51.446;5.404;2022-10-03T11:59:33;102424.75;;;29.81;48.20
13050;BME280;6591;51.446;5.404;2022-10-03T12:06:12;102425.09;;;29.96;47.52
13050;BME280;6591;51.446;5.404;2022-10-03T12:09:45;102421.50;;;29.95;47.45
13050;BME280;6591;51.446;5.404;2022-10-03T12:12:23;102404.28;;;30.03;46.86
13050;BME280;6591;51.446;5.404;2022-10-03T12:15:16;102406.59;;;30.15;46.47
13050;BME280;6591;51.446;5.404;2022-10-03T12:18:19;102413.63;;;30.36;46.49
13050;BME280;6591;51.446;5.404;2022-10-03T12:21:27;102412.44;;;30.56;46.28
13050;BME280;6591;51.446;5.404;2022-10-03T12:30:02;102409.19;;;30.60;44.13
13050;BME280;6591;51.446;5.404;2022-10-03T12:33:05;102409.53;;;30.40;43.98
13050;BME280;6591;51.446;5.404;2022-10-03T12:35:43;102403.53;;;30.18;44.34
13050;BME280;6591;51.446;5.404;2022-10-03T12:44:06;102403.50;;;29.47;44.05
13050;BME280;6591;51.446;5.404;2022-10-03T12:47:23;102394.00;;;29.24;45.11
13050;BME280;6591;51.446;5.404;2022-10-03T12:50:50;102393.28;;;29.22;45.99
13050;BME280;6591;51.446;5.404;2022-10-03T12:53:31;102382.53;;;29.38;46.34
13050;BME280;6591;51.446;5.404;2022-10-03T12:56:36;102385.53;;;29.63;45.80
13050;BME280;6591;51.446;5.404;2022-10-03T13:02:26;102383.84;;;29.97;44.66
13050;BME280;6591;51.446;5.404;2022-10-03T13:23:00;102379.03;;;29.46;44.31
13050;BME280;6591;51.446;5.404;2022-10-03T13:25:42;102365.91;;;29.50;44.06
13050;BME280;6591;51.446;5.404;2022-10-03T13:28:34;102369.34;;;29.52;44.31
13050;BME280;6591;51.446;5.404;2022-10-03T13:31:22;102364.31;;;29.47;43.81
13050;BME280;6591;51.446;5.404;2022-10-03T13:33:56;102365.34;;;29.46;43.97
13050;BME280;6591;51.446;5.404;2022-10-03T13:36:49;102361.34;;;29.40;43.80
13050;BME280;6591;51.446;5.404;2022-10-03T13:39:41;102359.16;;;29.44;44.38
13050;BME280;6591;51.446;5.404;2022-10-03T13:44:43;102354.00;;;29.59;43.72
13050;BME280;6591;51.446;5.404;2022-10-03T13:50:22;102363.22;;;29.58;43.39
13050;BME280;6591;51.446;5.404;2022-10-03T13:52:59;102353.59;;;29.54;43.22
13050;BME280;6591;51.446;5.404;2022-10-03T13:55:45;102355.00;;;29.40;43.03
13050;BME280;6591;51.446;5.404;2022-10-03T13:58:44;102350.88;;;29.26;43.40
13050;BME280;6591;51.446;5.404;2022-10-03T14:04:57;102357.66;;;29.04;43.35
13050;BME280;6591;51.446;5.404;2022-10-03T14:07:56;102353.25;;;28.94;43.70
13050;BME280;6591;51.446;5.404;2022-10-03T14:11:09;102347.81;;;28.84;43.93
13050;BME280;6591;51.446;5.404;2022-10-03T14:14:06;102351.00;;;28.80;43.23
13050;BME280;6591;51.446;5.404;2022-10-03T14:25:34;102345.69;;;28.32;42.72
13050;BME280;6591;51.446;5.404;2022-10-03T14:34:01;102334.09;;;27.91;43.24
13050;BME280;6591;51.446;5.404;2022-10-03T14:36:47;102315.72;;;27.84;43.31
13050;BME280;6591;51.446;5.404;2022-10-03T14:39:40;102325.19;;;27.79;43.49
13050;BME280;6591;51.446;5.404;2022-10-03T14:45:01;102316.56;;;27.65;43.43
13050;BME280;6591;51.446;5.404;2022-10-03T14:47:39;102309.69;;;27.61;43.36
13050;BME280;6591;51.446;5.404;2022-10-03T14:50:17;102318.31;;;27.56;43.07
13050;BME280;6591;51.446;5.404;2022-10-03T14:52:55;102314.38;;;27.49;43.20
13050;BME280;6591;51.446;5.404;2022-10-03T14:56:04;102305.34;;;27.39;43.86
13050;BME280;6591;51.446;5.404;2022-10-03T14:58:54;102310.50;;;27.32;44.12
13050;BME280;6591;51.446;5.404;2022-10-03T15:01:27;102317.97;;;27.30;43.78
13050;BME280;6591;51.446;5.404;2022-10-03T15:04:05;102314.09;;;27.23;43.86
13050;BME280;6591;51.446;5.404;2022-10-03T15:09:20;102299.00;;;27.10;44.00
13050;BME280;6591;51.446;5.404;2022-10-03T15:11:58;102296.69;;;27.05;44.13
13050;BME280;6591;51.446;5.404;2022-10-03T15:14:33;102291.50;;;27.02;43.65
13050;BME280;6591;51.446;5.404;2022-10-03T15:17:15;102289.19;;;26.97;44.00
13050;BME280;6591;51.446;5.404;2022-10-03T15:19:56;102294.94;;;26.94;44.34
13050;BME280;6591;51.446;5.404;2022-10-03T15:22:34;102292.34;;;26.93;44.47
13050;BME280;6591;51.446;5.404;2022-10-03T15:25:17;102287.47;;;26.87;44.63
13050;BME280;6591;51.446;5.404;2022-10-03T15:27:51;102285.31;;;26.90;44.81
13050;BME280;6591;51.446;5.404;2022-10-03T15:30:25;102276.41;;;26.88;44.63
13050;BME280;6591;51.446;5.404;2022-10-03T15:33:31;102281.66;;;26.80;44.99
13050;BME280;6591;51.446;5.404;2022-10-03T15:36:19;102282.94;;;26.76;44.62
13050;BME280;6591;51.446;5.404;2022-10-03T15:38:53;102283.50;;;26.70;44.46
13050;BME280;6591;51.446;5.404;2022-10-03T15:41:46;102275.41;;;26.59;44.99
13050;BME280;6591;51.446;5.404;2022-10-03T15:53:25;102252.72;;;26.19;46.72
13050;BME280;6591;51.446;5.404;2022-10-03T15:56:40;102252.72;;;26.19;46.69
13050;BME280;6591;51.446;5.404;2022-10-03T15:59:29;102247.91;;;26.22;46.09
13050;BME280;6591;51.446;5.404;2022-10-03T16:02:17;102243.38;;;26.32;46.27
13050;BME280;6591;51.446;5.404;2022-10-03T16:04:52;102238.94;;;26.41;46.65
13050;BME280;6591;51.446;5.404;2022-10-03T16:10:26;102236.53;;;26.47;45.63
13050;BME280;6591;51.446;5.404;2022-10-03T16:13:22;102235.34;;;26.40;45.71
13050;BME280;6591;51.446;5.404;2022-10-03T16:16:10;102233.19;;;26.34;45.66
13050;BME280;6591;51.446;5.404;2022-10-03T16:19:22;102229.94;;;26.20;46.12
13050;BME280;6591;51.446;5.404;2022-10-03T16:22:20;102237.50;;;26.06;45.80
13050;BME280;6591;51.446;5.404;2022-10-03T16:25:12;102239.53;;;25.93;45.27
13050;BME280;6591;51.446;5.404;2022-10-03T16:27:58;102231.84;;;25.78;45.59
13050;BME280;6591;51.446;5.404;2022-10-03T16:30:40;102243.97;;;25.64;45.09
13050;BME280;6591;51.446;5.404;2022-10-03T16:33:39;102247.47;;;25.44;45.41
13050;BME280;6591;51.446;5.404;2022-10-03T16:36:15;102238.28;;;25.24;45.57
13050;BME280;6591;51.446;5.404;2022-10-03T16:38:51;102253.31;;;25.07;46.29
13050;BME280;6591;51.446;5.404;2022-10-03T16:41:34;102242.25;;;24.88;46.50
13050;BME280;6591;51.446;5.404;2022-10-03T16:44:39;102240.78;;;24.62;47.03
13050;BME280;6591;51.446;5.404;2022-10-03T16:47:09;102241.56;;;24.53;46.81
13050;BME280;6591;51.446;5.404;2022-10-03T16:49:50;102238.75;;;24.32;46.89
13050;BME280;6591;51.446;5.404;2022-10-03T16:52:39;102237.59;;;24.12;47.66
13050;BME280;6591;51.446;5.404;2022-10-03T16:55:32;102232.03;;;23.91;47.22
13050;BME280;6591;51.446;5.404;2022-10-03T16:58:16;102233.84;;;23.69;47.43
13050;BME280;6591;51.446;5.404;2022-10-03T17:01:04;102237.25;;;23.48;47.40
13050;BME280;6591;51.446;5.404;2022-10-03T17:04:24;102231.06;;;23.22;47.90
13050;BME280;6591;51.446;5.404;2022-10-03T17:06:58;102232.00;;;23.10;47.71
13050;BME280;6591;51.446;5.404;2022-10-03T17:09:46;102235.44;;;22.89;47.95
13050;BME280;6591;51.446;5.404;2022-10-03T17:12:33;102231.59;;;22.67;48.32
13050;BME280;6591;51.446;5.404;2022-10-03T17:15:07;102219.28;;;22.51;48.50
13050;BME280;6591;51.446;5.404;2022-10-03T17:17:57;102221.50;;;22.33;48.36
13050;BME280;6591;51.446;5.404;2022-10-03T17:20:52;102219.38;;;22.13;48.92
13050;BME280;6591;51.446;5.404;2022-10-03T17:23:49;102213.09;;;22.00;48.99
13050;BME280;6591;51.446;5.404;2022-10-03T17:26:34;102215.91;;;21.85;49.15
13050;BME280;6591;51.446;5.404;2022-10-03T17:29:33;102220.41;;;21.72;49.90
13050;BME280;6591;51.446;5.404;2022-10-03T17:32:32;102220.44;;;21.60;50.20
13050;BME280;6591;51.446;5.404;2022-10-03T17:38:51;102227.00;;;21.43;50.67
13050;BME280;6591;51.446;5.404;2022-10-03T17:42:08;102217.69;;;21.34;50.68
13050;BME280;6591;51.446;5.404;2022-10-03T17:44:56;102211.59;;;21.31;51.02
13050;BME280;6591;51.446;5.404;2022-10-03T17:47:42;102218.97;;;21.29;51.08
13050;BME280;6591;51.446;5.404;2022-10-03T17:50:49;102224.56;;;21.26;50.91
13050;BME280;6591;51.446;5.404;2022-10-03T17:53:30;102224.25;;;21.18;51.02
13050;BME280;6591;51.446;5.404;2022-10-03T17:56:11;102212.78;;;21.14;51.55
13050;BME280;6591;51.446;5.404;2022-10-03T17:58:48;102205.94;;;21.08;51.10
13050;BME280;6591;51.446;5.404;2022-10-03T18:01:29;102211.50;;;21.05;51.94
13050;BME280;6591;51.446;5.404;2022-10-03T18:04:05;102208.94;;;21.04;51.60
13050;BME280;6591;51.446;5.404;2022-10-03T18:06:45;102211.91;;;20.99;51.88
13050;BME280;6591;51.446;5.404;2022-10-03T18:09:31;102195.38;;;20.91;51.57
13050;BME280;6591;51.446;5.404;2022-10-03T18:15:01;102206.03;;;20.80;51.61
13050;BME280;6591;51.446;5.404;2022-10-03T18:17:54;102216.34;;;20.73;51.81
13050;BME280;6591;51.446;5.404;2022-10-03T18:21:02;102210.69;;;20.64;51.75
13050;BME280;6591;51.446;5.404;2022-10-03T18:26:34;102212.56;;;20.49;52.10
13050;BME280;6591;51.446;5.404;2022-10-03T18:29:45;102212.31;;;20.40;52.10
13050;BME280;6591;51.446;5.404;2022-10-03T18:32:18;102211.81;;;20.33;52.33
13050;BME280;6591;51.446;5.404;2022-10-03T18:39:57;102216.50;;;20.15;52.10
13050;BME280;6591;51.446;5.404;2022-10-03T18:42:27;102221.34;;;20.10;52.56
13050;BME280;6591;51.446;5.404;2022-10-03T18:44:57;102211.72;;;20.06;53.18
13050;BME280;6591;51.446;5.404;2022-10-03T18:47:40;102207.69;;;19.99;53.37
13050;BME280;6591;51.446;5.404;2022-10-03T18:50:32;102208.94;;;19.94;52.75
13050;BME280;6591;51.446;5.404;2022-10-03T18:53:36;102210.28;;;19.86;52.96
13050;BME280;6591;51.446;5.404;2022-10-03T18:56:16;102215.00;;;19.83;53.23
13050;BME280;6591;51.446;5.404;2022-10-03T19:01:49;102227.31;;;19.73;53.28
13050;BME280;6591;51.446;5.404;2022-10-03T19:04:34;102215.06;;;19.67;53.43
13050;BME280;6591;51.446;5.404;2022-10-03T19:07:18;102207.25;;;19.63;53.19
13050;BME280;6591;51.446;5.404;2022-10-03T19:10:27;102214.94;;;19.55;53.56
13050;BME280;6591;51.446;5.404;2022-10-03T19:13:27;102213.41;;;19.51;53.72
13050;BME280;6591;51.446;5.404;2022-10-03T19:16:22;102209.16;;;19.47;53.66
13050;BME280;6591;51.446;5.404;2022-10-03T19:19:15;102203.25;;;19.40;53.56
13050;BME280;6591;51.446;5.404;2022-10-03T19:21:49;102204.19;;;19.39;53.49
13050;BME280;6591;51.446;5.404;2022-10-03T19:24:23;102203.59;;;19.34;53.52
13050;BME280;6591;51.446;5.404;2022-10-03T19:27:18;102193.13;;;19.29;53.24
13050;BME280;6591;51.446;5.404;2022-10-03T19:29:53;102189.03;;;19.22;53.43
13050;BME280;6591;51.446;5.404;2022-10-03T19:33:02;102180.84;;;19.10;53.66
13050;BME280;6591;51.446;5.404;2022-10-03T19:35:35;102180.94;;;19.08;53.63
13050;BME280;6591;51.446;5.404;2022-10-03T19:38:17;102171.59;;;18.99;53.80
13050;BME280;6591;51.446;5.404;2022-10-03T19:44:19;102167.25;;;18.81;53.91
13050;BME280;6591;51.446;5.404;2022-10-03T19:47:01;102160.34;;;18.77;54.06
13050;BME280;6591;51.446;5.404;2022-10-03T19:49:49;102161.47;;;18.73;53.99
13050;BME280;6591;51.446;5.404;2022-10-03T19:52:44;102163.66;;;18.67;54.25
13050;BME280;6591;51.446;5.404;2022-10-03T19:55:20;102164.53;;;18.67;54.00
13050;BME280;6591;51.446;5.404;2022-10-03T19:58:00;102159.28;;;18.64;54.36
13050;BME280;6591;51.446;5.404;2022-10-03T20:00:35;102169.19;;;18.63;54.48
13050;BME280;6591;51.446;5.404;2022-10-03T20:03:11;102173.81;;;18.61;54.74
13050;BME280;6591;51.446;5.404;2022-10-03T20:05:56;102173.81;;;18.61;54.71
13050;BME280;6591;51.446;5.404;2022-10-03T20:14:00;102185.31;;;18.63;55.10
13050;BME280;6591;51.446;5.404;2022-10-03T20:16:32;102189.50;;;18.69;55.31
13050;BME280;6591;51.446;5.404;2022-10-03T20:19:09;102181.25;;;18.72;55.18
13050;BME280;6591;51.446;5.404;2022-10-03T20:21:38;102180.19;;;18.75;55.32
13050;BME280;6591;51.446;5.404;2022-10-03T20:24:17;102189.06;;;18.77;55.46
13050;BME280;6591;51.446;5.404;2022-10-03T20:27:06;102184.56;;;18.77;55.48
13050;BME280;6591;51.446;5.404;2022-10-03T20:30:03;102176.47;;;18.77;55.41
13050;BME280;6591;51.446;5.404;2022-10-03T20:32:34;102180.72;;;18.81;55.42
13050;BME280;6591;51.446;5.404;2022-10-03T20:35:04;102184.28;;;18.82;55.50
13050;BME280;6591;51.446;5.404;2022-10-03T20:37:46;102183.59;;;18.78;55.51
13050;BME280;6591;51.446;5.404;2022-10-03T20:43:34;102185.50;;;18.76;55.95
13050;BME280;6591;51.446;5.404;2022-10-03T20:46:36;102178.22;;;18.78;56.21
13050;BME280;6591;51.446;5.404;2022-10-03T20:54:25;102174.97;;;18.87;55.86
13050;BME280;6591;51.446;5.404;2022-10-03T20:57:12;102170.47;;;18.88;56.02
13050;BME280;6591;51.446;5.404;2022-10-03T20:59:54;102162.41;;;18.88;56.19
13050;BME280;6591;51.446;5.404;2022-10-03T21:02:37;102157.00;;;18.88;55.92
13050;BME280;6591;51.446;5.404;2022-10-03T21:05:26;102157.97;;;18.87;56.22
13050;BME280;6591;51.446;5.404;2022-10-03T21:08:12;102160.66;;;18.87;56.04
13050;BME280;6591;51.446;5.404;2022-10-03T21:13:58;102165.25;;;18.85;56.11
13050;BME280;6591;51.446;5.404;2022-10-03T21:16:46;102163.44;;;18.85;56.01
13050;BME280;6591;51.446;5.404;2022-10-03T21:22:03;102168.53;;;18.90;56.21
13050;BME280;6591;51.446;5.404;2022-10-03T21:27:22;102161.25;;;18.92;56.36
13050;BME280;6591;51.446;5.404;2022-10-03T21:30:19;102164.22;;;18.87;56.55
13050;BME280;6591;51.446;5.404;2022-10-03T21:33:17;102162.41;;;18.88;56.65
13050;BME280;6591;51.446;5.404;2022-10-03T21:35:48;102149.53;;;18.93;56.48
13050;BME280;6591;51.446;5.404;2022-10-03T21:38:32;102156.75;;;18.92;56.59
13050;BME280;6591;51.446;5.404;2022-10-03T21:41:37;102155.06;;;18.90;56.39
13050;BME280;6591;51.446;5.404;2022-10-03T21:44:43;102147.97;;;18.89;56.41
13050;BME280;6591;51.446;5.404;2022-10-03T21:50:12;102153.38;;;18.89;56.04
13050;BME280;6591;51.446;5.404;2022-10-03T21:53:17;102147.28;;;18.85;56.00
13050;BME280;6591;51.446;5.404;2022-10-03T22:02:09;102140.19;;;18.69;56.32
13050;BME280;6591;51.446;5.404;2022-10-03T22:05:02;102135.00;;;18.66;56.17
13050;BME280;6591;51.446;5.404;2022-10-03T22:07:37;102132.22;;;18.67;56.05
13050;BME280;6591;51.446;5.404;2022-10-03T22:10:21;102126.13;;;18.63;55.78
13050;BME280;6591;51.446;5.404;2022-10-03T22:13:05;102129.28;;;18.56;55.86
13050;BME280;6591;51.446;5.404;2022-10-03T22:15:47;102121.44;;;18.51;55.63
13050;BME280;6591;51.446;5.404;2022-10-03T22:18:20;102115.47;;;18.46;55.57
13050;BME280;6591;51.446;5.404;2022-10-03T22:21:24;102116.16;;;18.34;55.72
13050;BME280;6591;51.446;5.404;2022-10-03T22:24:03;102116.44;;;18.30;55.63
13050;BME280;6591;51.446;5.404;2022-10-03T22:26:50;102117.84;;;18.21;55.80
13050;BME280;6591;51.446;5.404;2022-10-03T22:35:38;102113.66;;;18.00;56.20
13050;BME280;6591;51.446;5.404;2022-10-03T22:38:09;102102.19;;;17.96;55.82
13050;BME280;6591;51.446;5.404;2022-10-03T22:40:38;102099.63;;;17.95;56.39
13050;BME280;6591;51.446;5.404;2022-10-03T22:43:09;102101.59;;;17.91;56.53
13050;BME280;6591;51.446;5.404;2022-10-03T22:45:41;102092.75;;;17.89;56.33
13050;BME280;6591;51.446;5.404;2022-10-03T22:48:29;102086.84;;;17.83;56.39
13050;BME280;6591;51.446;5.404;2022-10-03T22:50:59;102084.16;;;17.83;56.43
13050;BME280;6591;51.446;5.404;2022-10-03T22:53:31;102083.38;;;17.81;56.42
13050;BME280;6591;51.446;5.404;2022-10-03T22:56:36;102074.00;;;17.72;56.64
13050;BME280;6591;51.446;5.404;2022-10-03T22:59:10;102078.59;;;17.70;56.56
13050;BME280;6591;51.446;5.404;2022-10-03T23:01:44;102075.03;;;17.69;56.26
13050;BME280;6591;51.446;5.404;2022-10-03T23:04:53;102070.19;;;17.60;56.79
13050;BME280;6591;51.446;5.404;2022-10-03T23:15:48;102068.59;;;17.56;57.04
13050;BME280;6591;51.446;5.404;2022-10-03T23:18:49;102058.03;;;17.53;57.22
13050;BME280;6591;51.446;5.404;2022-10-03T23:21:20;102063.84;;;17.61;56.89
13050;BME280;6591;51.446;5.404;2022-10-03T23:24:17;102060.44;;;17.58;56.75
13050;BME280;6591;51.446;5.404;2022-10-03T23:29:38;102046.88;;;17.61;57.34
13050;BME280;6591;51.446;5.404;2022-10-03T23:32:08;102051.22;;;17.63;57.18
13050;BME280;6591;51.446;5.404;2022-10-03T23:45:14;102058.69;;;17.74;57.48
13050;BME280;6591;51.446;5.404;2022-10-03T23:47:58;102063.81;;;17.78;57.24
13050;BME280;6591;51.446;5.404;2022-10-03T23:53:43;102077.22;;;17.78;57.53
13050;BME280;6591;51.446;5.404;2022-10-03T23:56:40;102066.38;;;17.80;57.58
